Ada, Oklahoma
Current Conditions -  °F | °C
As of 3:15 PM on Tuesday 21 Oct 2014 (Local Time) from KADH Reporting Station
Scattered Clouds Scattered Clouds  
Wind Chill: 27°   Ceiling: Unl
Heat Index: 28°   Visibility: 10mi
Dew Point: 17°   Wind: 10mph
Humidity: 54%   Direction: 160°SSE
Pressure: 30.05"   Gusts: 16mph
Location:  34.78°N, 96.68°W
Report Text: KADH 212015Z AUTO 16009G14KT 10SM SCT047 SCT055 SCT070 27/17 A3005 RMK AO2
Loading
Personal Weather Stations






























Interactive Weather Map New forecast layout! Learn more

10-Day Weather Forecast

Advertisements
Track Severe Weather on mobile